createdAt,value
2017-11-21T00:02:05.019Z,2.03
2017-11-21T00:04:33.264Z,1.97
2017-11-21T00:07:00.767Z,1.70
2017-11-21T00:09:29.001Z,1.67
2017-11-21T00:11:56.496Z,1.73
2017-11-21T00:14:24.009Z,1.80
2017-11-21T00:16:51.480Z,1.83
2017-11-21T00:19:18.960Z,1.50
2017-11-21T00:21:47.200Z,1.77
2017-11-21T00:24:14.699Z,1.90
2017-11-21T00:26:42.954Z,1.57
2017-11-21T00:29:10.538Z,1.67
2017-11-21T00:31:44.841Z,1.80
2017-11-21T00:34:13.089Z,2.27
2017-11-21T00:36:40.560Z,1.83
2017-11-21T00:39:08.018Z,1.90
2017-11-21T00:41:35.493Z,2.00
2017-11-21T00:44:03.724Z,2.10
2017-11-21T00:46:31.225Z,1.77
2017-11-21T00:48:59.458Z,1.90
2017-11-21T00:51:26.950Z,1.90
2017-11-21T00:53:55.189Z,2.43
2017-11-21T00:56:22.674Z,2.90
2017-11-21T00:58:50.154Z,2.53
2017-11-21T01:01:24.938Z,2.20
2017-11-21T01:03:52.405Z,2.13
2017-11-21T01:06:19.854Z,2.60
2017-11-21T01:08:47.325Z,2.20
2017-11-21T01:11:14.793Z,2.80
2017-11-21T01:13:42.245Z,2.47
2017-11-21T01:16:09.706Z,2.73
2017-11-21T01:18:37.165Z,2.90
2017-11-21T01:21:04.648Z,3.10
2017-11-21T01:23:32.125Z,3.37
2017-11-21T01:25:59.589Z,4.30
2017-11-21T01:28:27.074Z,4.60
2017-11-21T01:30:54.536Z,4.00
2017-11-21T01:33:21.980Z,4.57
2017-11-21T01:35:49.454Z,3.70
2017-11-21T01:38:16.914Z,3.67
2017-11-21T01:40:44.390Z,3.87
2017-11-21T01:43:12.626Z,3.30
2017-11-21T01:45:40.078Z,3.13
2017-11-21T01:48:07.553Z,2.83
2017-11-21T01:50:35.010Z,3.03
2017-11-21T01:53:02.481Z,2.83
2017-11-21T01:55:30.722Z,2.90
2017-11-21T01:57:58.606Z,2.70
2017-11-21T02:00:26.887Z,3.07
2017-11-21T02:03:05.508Z,3.03
2017-11-21T02:05:32.998Z,2.50
2017-11-21T02:08:00.489Z,3.07
2017-11-21T02:10:27.930Z,2.57
2017-11-21T02:12:55.417Z,3.10
2017-11-21T02:15:22.873Z,3.00
2017-11-21T02:17:50.359Z,3.17
2017-11-21T02:20:18.607Z,3.70
2017-11-21T02:22:46.063Z,3.50
2017-11-21T02:25:13.534Z,3.33
2017-11-21T02:27:40.996Z,3.37
2017-11-21T02:30:08.499Z,3.47
2017-11-21T02:32:35.969Z,3.47
2017-11-21T02:35:07.025Z,3.97
2017-11-21T02:37:34.523Z,3.90
2017-11-21T02:40:02.070Z,4.10
2017-11-21T02:42:30.343Z,4.73
2017-11-21T02:44:57.808Z,4.60
2017-11-21T02:47:25.265Z,4.77
2017-11-21T02:49:53.695Z,4.40
2017-11-21T02:52:21.460Z,5.13
2017-11-21T02:54:49.694Z,4.17
2017-11-21T02:57:18.625Z,4.27
2017-11-21T02:59:46.076Z,4.70
2017-11-21T03:02:13.572Z,4.57
2017-11-21T03:04:41.048Z,4.50
2017-11-21T03:07:09.346Z,4.67
2017-11-21T03:09:37.646Z,3.77
2017-11-21T03:12:05.285Z,4.57
2017-11-21T03:14:32.803Z,4.00
2017-11-21T03:17:00.263Z,4.13
2017-11-21T03:19:27.726Z,4.57
2017-11-21T03:22:07.008Z,4.07
2017-11-21T03:38:01.023Z,4.33
2017-11-21T03:40:29.278Z,3.80
2017-11-21T03:42:56.758Z,3.80
2017-11-21T03:45:24.226Z,4.40
2017-11-21T03:47:52.897Z,3.10
2017-11-21T03:50:20.404Z,2.90
2017-11-21T03:52:47.866Z,3.50
2017-11-21T03:55:15.345Z,3.20
2017-11-21T03:57:42.826Z,3.57
2017-11-21T04:00:10.285Z,2.87
2017-11-21T04:02:37.783Z,3.00
2017-11-21T04:05:05.249Z,4.23
2017-11-21T04:07:32.745Z,3.90
2017-11-21T04:10:00.206Z,3.57
2017-11-21T04:12:27.680Z,3.57
2017-11-21T04:14:55.164Z,3.97
2017-11-21T04:17:22.623Z,3.77
2017-11-21T04:19:50.100Z,4.43
2017-11-21T04:22:17.584Z,4.17
2017-11-21T04:24:45.049Z,4.20
2017-11-21T04:27:12.545Z,4.20
2017-11-21T04:29:40.784Z,4.23
2017-11-21T04:32:08.261Z,4.37
2017-11-21T04:34:36.510Z,3.80
2017-11-21T04:37:04.017Z,4.20
2017-11-21T04:39:31.526Z,4.00
2017-11-21T04:41:59.000Z,4.10
2017-11-21T04:44:26.465Z,4.00
2017-11-21T04:46:54.690Z,3.80
2017-11-21T04:49:22.177Z,3.30
2017-11-21T04:51:49.639Z,4.00
2017-11-21T04:54:17.111Z,3.70
2017-11-21T04:56:45.353Z,4.60
2017-11-21T04:59:12.839Z,4.03
2017-11-21T05:01:40.321Z,3.40
2017-11-21T05:04:07.797Z,3.50
2017-11-21T05:06:53.211Z,3.80
2017-11-21T05:09:21.484Z,3.47
2017-11-21T05:11:48.949Z,3.23
2017-11-21T05:14:16.443Z,3.30
2017-11-21T05:16:44.678Z,3.23
2017-11-21T05:19:12.149Z,3.50
2017-11-21T05:21:39.601Z,3.23
2017-11-21T05:24:07.047Z,3.20
2017-11-21T05:26:34.525Z,3.50
2017-11-21T05:29:02.005Z,3.10
2017-11-21T05:31:29.481Z,3.10
2017-11-21T05:33:56.942Z,2.47
2017-11-21T05:36:24.395Z,2.43
2017-11-21T05:38:51.886Z,3.30
2017-11-21T05:41:19.340Z,2.50
2017-11-21T05:43:46.872Z,2.80
2017-11-21T05:46:14.340Z,2.67
2017-11-21T05:48:41.795Z,2.70
2017-11-21T05:51:09.286Z,3.03
2017-11-21T05:53:36.757Z,2.67
2017-11-21T05:56:04.993Z,2.73
2017-11-21T05:58:32.469Z,3.00
2017-11-21T06:00:59.940Z,3.33
2017-11-21T06:03:27.402Z,3.10
2017-11-21T06:05:54.870Z,2.80
2017-11-21T06:08:22.353Z,3.00
2017-11-21T06:10:49.815Z,3.00
2017-11-21T06:13:17.291Z,2.50
2017-11-21T06:15:44.764Z,2.37
2017-11-21T06:18:12.231Z,2.90
2017-11-21T06:20:39.705Z,3.10
2017-11-21T06:23:07.960Z,2.80
2017-11-21T06:25:35.432Z,4.53
2017-11-21T06:28:03.660Z,2.80
2017-11-21T06:30:31.128Z,3.00
2017-11-21T06:32:58.616Z,2.53
2017-11-21T06:35:26.080Z,2.53
2017-11-21T06:37:53.586Z,2.53
2017-11-21T06:40:21.074Z,2.43
2017-11-21T06:42:48.528Z,2.63
2017-11-21T06:45:16.009Z,2.53
2017-11-21T06:47:44.250Z,2.43
2017-11-21T06:50:11.697Z,2.87
2017-11-21T06:52:39.177Z,2.60
2017-11-21T06:55:06.642Z,2.20
2017-11-21T06:57:34.126Z,1.87
2017-11-21T07:00:02.340Z,2.07
2017-11-21T07:02:29.814Z,1.90
2017-11-21T07:04:57.281Z,2.10
2017-11-21T07:07:24.739Z,2.10
2017-11-21T07:09:52.273Z,2.30
2017-11-21T07:12:19.729Z,2.60
2017-11-21T07:14:47.213Z,2.20
2017-11-21T07:17:14.709Z,2.00
2017-11-21T07:19:42.193Z,2.10
2017-11-21T07:22:09.696Z,1.80
2017-11-21T07:24:37.186Z,1.80
2017-11-21T07:27:04.657Z,2.10
2017-11-21T07:29:32.131Z,1.90
2017-11-21T07:31:59.600Z,1.83
2017-11-21T07:34:27.086Z,1.70
2017-11-21T07:36:55.338Z,1.80
2017-11-21T07:39:22.802Z,1.60
2017-11-21T07:41:50.287Z,1.80
2017-11-21T07:44:18.520Z,1.80
2017-11-21T07:46:46.029Z,1.30
2017-11-21T07:49:13.525Z,2.00
2017-11-21T07:51:40.987Z,1.87
2017-11-21T07:54:08.465Z,1.60
2017-11-21T07:56:35.933Z,1.60
2017-11-21T07:59:03.429Z,1.53
2017-11-21T08:01:30.903Z,1.70
2017-11-21T08:03:58.444Z,1.70
2017-11-21T08:06:25.957Z,1.30
2017-11-21T08:08:53.417Z,1.70
2017-11-21T08:11:20.934Z,1.40
2017-11-21T08:13:48.392Z,1.50
2017-11-21T08:16:15.857Z,1.40
2017-11-21T08:18:43.337Z,1.70
2017-11-21T08:21:10.798Z,2.63
2017-11-21T08:23:38.278Z,2.23
2017-11-21T08:26:06.527Z,1.60
2017-11-21T08:28:34.005Z,1.50
2017-11-21T08:31:02.265Z,1.40
2017-11-21T08:33:30.522Z,1.60
2017-11-21T08:35:57.999Z,1.50
2017-11-21T08:38:25.481Z,1.80
2017-11-21T08:40:53.712Z,1.70
2017-11-21T08:43:21.193Z,1.70
2017-11-21T08:45:48.683Z,1.53
2017-11-21T08:48:16.164Z,1.73
2017-11-21T08:50:43.718Z,1.73
2017-11-21T08:53:11.195Z,2.10
2017-11-21T08:55:38.663Z,1.83
2017-11-21T08:58:06.137Z,1.57
2017-11-21T09:00:33.602Z,2.10
2017-11-21T09:03:01.870Z,2.30
2017-11-21T09:05:29.338Z,2.00
2017-11-21T09:07:57.569Z,2.17
2017-11-21T09:10:25.060Z,2.10
2017-11-21T09:12:52.572Z,1.70
2017-11-21T09:15:20.082Z,4.27
2017-11-21T09:17:49.274Z,1.87
2017-11-21T09:20:16.781Z,1.80
2017-11-21T09:22:44.276Z,1.63
2017-11-21T09:25:12.116Z,1.70
2017-11-21T09:27:39.655Z,1.67
2017-11-21T09:30:07.129Z,1.70
2017-11-21T09:32:34.757Z,1.83
2017-11-21T09:35:03.022Z,1.50
2017-11-21T09:37:31.254Z,1.80
2017-11-21T09:39:58.754Z,2.00
2017-11-21T09:42:26.235Z,1.70
2017-11-21T09:44:53.731Z,2.47
2017-11-21T09:47:21.208Z,1.77
2017-11-21T09:49:48.679Z,2.10
2017-11-21T09:52:16.954Z,1.90
2017-11-21T09:54:45.199Z,3.40
2017-11-21T09:57:12.660Z,2.60
2017-11-21T09:59:40.133Z,3.10
2017-11-21T10:02:08.703Z,3.30
2017-11-21T10:04:36.186Z,2.70
2017-11-21T10:07:03.680Z,2.70
2017-11-21T10:09:31.154Z,2.90
2017-11-21T10:11:58.648Z,2.83
2017-11-21T10:14:26.903Z,3.00
2017-11-21T10:16:54.377Z,3.03
2017-11-21T10:19:22.619Z,3.07
2017-11-21T10:21:50.104Z,3.07
2017-11-21T10:24:17.628Z,2.73
2017-11-21T10:26:45.868Z,2.87
2017-11-21T10:29:13.381Z,2.43
2017-11-21T10:31:40.850Z,3.07
2017-11-21T10:34:08.323Z,3.10
2017-11-21T10:36:35.793Z,2.60
2017-11-21T10:39:03.281Z,2.43
2017-11-21T10:41:30.771Z,2.93
2017-11-21T10:43:58.255Z,2.93
2017-11-21T10:46:25.733Z,2.50
2017-11-21T10:48:53.213Z,2.77
2017-11-21T10:51:20.661Z,2.60
2017-11-21T10:53:48.167Z,2.53
2017-11-21T10:56:15.680Z,2.73
2017-11-21T10:58:43.148Z,2.90
2017-11-21T11:01:10.645Z,2.30
2017-11-21T11:03:38.099Z,3.10
2017-11-21T11:06:05.666Z,3.00
2017-11-21T11:08:33.169Z,2.50
2017-11-21T11:11:01.305Z,2.97
2017-11-21T11:13:28.792Z,3.23
2017-11-21T11:15:56.273Z,2.60
2017-11-21T11:18:23.767Z,2.80
2017-11-21T11:20:51.228Z,3.10
2017-11-21T11:23:18.705Z,2.73
2017-11-21T11:25:46.186Z,3.20
2017-11-21T11:28:15.094Z,3.17
2017-11-21T11:30:42.587Z,3.50
2017-11-21T11:33:10.365Z,4.60
2017-11-21T11:35:37.833Z,4.90
2017-11-21T11:38:06.084Z,4.33
2017-11-21T11:40:33.550Z,4.50
2017-11-21T11:43:01.818Z,3.90
2017-11-21T11:45:29.317Z,6.63
2017-11-21T11:47:56.784Z,8.13
2017-11-21T11:50:24.273Z,6.97
2017-11-21T11:52:52.544Z,7.90
2017-11-21T11:55:20.024Z,8.47
2017-11-21T11:57:48.294Z,8.30
2017-11-21T12:00:15.769Z,7.90
2017-11-21T12:02:44.052Z,8.97
2017-11-21T12:05:12.282Z,9.37
2017-11-21T12:07:39.779Z,9.97
2017-11-21T12:10:07.304Z,10.00
2017-11-21T12:12:34.785Z,9.80
2017-11-21T12:15:03.050Z,9.00
2017-11-21T12:17:30.521Z,9.70
2017-11-21T12:19:58.036Z,7.87
2017-11-21T12:22:25.530Z,8.27
2017-11-21T12:24:53.054Z,7.10
2017-11-21T12:27:20.539Z,7.10
2017-11-21T12:29:48.105Z,7.80
2017-11-21T12:32:15.585Z,6.27
2017-11-21T12:34:43.063Z,5.57
2017-11-21T12:37:10.588Z,6.93
2017-11-21T12:39:38.124Z,6.47
2017-11-21T12:42:05.588Z,7.20
2017-11-21T12:44:33.080Z,5.83
2017-11-21T12:47:00.553Z,6.17
2017-11-21T12:49:28.778Z,6.90
2017-11-21T12:51:56.282Z,6.30
2017-11-21T12:54:23.768Z,6.53
2017-11-21T12:56:51.263Z,6.87
2017-11-21T12:59:19.847Z,6.20
2017-11-21T13:01:47.321Z,6.60
2017-11-21T13:04:14.914Z,6.20
2017-11-21T13:06:42.392Z,5.23
2017-11-21T13:09:11.004Z,5.87
2017-11-21T13:11:38.483Z,6.00
2017-11-21T13:14:05.973Z,6.27
2017-11-21T13:16:34.285Z,4.90
2017-11-21T13:19:01.759Z,6.20
2017-11-21T13:21:29.217Z,5.23
2017-11-21T13:23:56.717Z,7.00
2017-11-21T13:26:24.239Z,6.93
2017-11-21T13:28:52.554Z,6.63
2017-11-21T13:31:20.033Z,5.07
2017-11-21T13:33:48.866Z,6.13
2017-11-21T13:36:16.373Z,7.00
2017-11-21T13:38:43.889Z,7.80
2017-11-21T13:41:11.456Z,8.20
2017-11-21T13:43:39.004Z,8.10
2017-11-21T13:46:06.503Z,8.00
2017-11-21T13:48:34.022Z,8.00
2017-11-21T13:51:01.500Z,8.80
2017-11-21T13:53:29.009Z,9.10
2017-11-21T13:55:56.486Z,9.73
2017-11-21T13:58:23.964Z,12.07
2017-11-21T14:00:51.457Z,9.43
2017-11-21T14:03:18.935Z,10.60
2017-11-21T14:05:46.442Z,11.90
2017-11-21T14:08:13.925Z,11.97
2017-11-21T14:10:42.272Z,10.13
2017-11-21T14:13:09.762Z,10.80
2017-11-21T14:15:37.272Z,10.87
2017-11-21T14:18:04.786Z,10.20
2017-11-21T14:20:32.313Z,13.67
2017-11-21T14:22:59.788Z,12.90
2017-11-21T14:25:27.278Z,12.03
2017-11-21T14:27:55.520Z,14.70
2017-11-21T14:30:23.025Z,13.10
2017-11-21T14:32:50.532Z,14.10
2017-11-21T14:35:18.013Z,12.67
2017-11-21T14:37:45.513Z,13.87
2017-11-21T14:40:13.023Z,13.10
2017-11-21T14:42:40.525Z,13.53
2017-11-21T14:45:08.006Z,14.27
2017-11-21T14:47:35.489Z,13.50
2017-11-21T14:50:02.976Z,12.17
2017-11-21T14:52:31.244Z,13.00
2017-11-21T14:54:59.537Z,13.93
2017-11-21T14:57:27.027Z,14.33
2017-11-21T14:59:54.524Z,13.40
2017-11-21T15:02:22.033Z,12.83
2017-11-21T15:04:49.521Z,13.80
2017-11-21T15:07:17.014Z,11.43
2017-11-21T15:09:45.253Z,10.33
2017-11-21T15:12:12.748Z,13.10
2017-11-21T15:14:41.021Z,12.10
2017-11-21T15:17:09.296Z,14.10
2017-11-21T15:19:37.583Z,14.03
2017-11-21T15:22:05.833Z,12.73
2017-11-21T15:24:33.321Z,13.97
2017-11-21T15:27:01.598Z,13.40
2017-11-21T15:29:29.844Z,11.80
2017-11-21T15:31:57.366Z,12.20
2017-11-21T15:34:24.843Z,12.10
2017-11-21T15:36:52.349Z,13.73
2017-11-21T15:39:19.875Z,11.70
2017-11-21T15:41:47.352Z,12.43
2017-11-21T15:44:15.613Z,11.73
2017-11-21T15:46:43.095Z,11.40
2017-11-21T15:49:10.559Z,11.87
2017-11-21T15:51:38.081Z,12.53
2017-11-21T15:54:05.568Z,11.30
2017-11-21T15:56:33.084Z,12.77
2017-11-21T15:59:00.593Z,11.90
2017-11-21T16:01:28.086Z,12.03
2017-11-21T16:03:55.587Z,11.43
2017-11-21T16:06:23.838Z,13.07
2017-11-21T16:08:51.319Z,11.37
2017-11-21T16:11:20.432Z,11.13
2017-11-21T16:13:47.934Z,13.10
2017-11-21T16:16:15.418Z,13.60
2017-11-21T16:18:42.903Z,11.23
2017-11-21T16:21:11.182Z,10.80
2017-11-21T16:23:38.685Z,12.73
2017-11-21T16:26:06.172Z,13.00
2017-11-21T16:28:34.450Z,12.67
2017-11-21T16:31:02.695Z,11.23
2017-11-21T16:33:30.198Z,14.10
2017-11-21T16:35:57.669Z,13.70
2017-11-21T16:38:25.152Z,15.33
2017-11-21T16:40:52.656Z,13.43
2017-11-21T16:43:20.159Z,13.40
2017-11-21T16:45:47.671Z,16.33
2017-11-21T16:48:15.916Z,12.00
2017-11-21T16:50:43.382Z,12.00
2017-11-21T16:53:10.859Z,13.77
2017-11-21T16:55:39.140Z,13.13
2017-11-21T16:58:07.416Z,13.80
2017-11-21T17:00:35.909Z,13.50
2017-11-21T17:03:03.447Z,13.70
2017-11-21T17:05:30.956Z,12.23
2017-11-21T17:07:58.441Z,13.40
2017-11-21T17:10:25.978Z,15.20
2017-11-21T17:12:53.456Z,15.10
2017-11-21T17:15:20.927Z,20.17
2017-11-21T17:17:48.449Z,18.27
2017-11-21T17:20:15.933Z,12.90
2017-11-21T17:22:43.509Z,16.93
2017-11-21T17:25:12.615Z,15.17
2017-11-21T17:27:40.116Z,14.83
2017-11-21T17:30:07.595Z,13.70
2017-11-21T17:32:35.104Z,16.23
2017-11-21T17:35:02.618Z,12.60
2017-11-21T17:37:30.147Z,12.90
2017-11-21T17:39:57.694Z,13.40
2017-11-21T17:42:25.207Z,10.90
2017-11-21T17:44:52.687Z,12.10
2017-11-21T17:47:21.109Z,11.60
2017-11-21T17:49:48.587Z,10.87
2017-11-21T17:52:16.086Z,8.57
2017-11-21T17:54:43.608Z,10.63
2017-11-21T17:57:11.082Z,10.47
2017-11-21T17:59:39.369Z,11.33
2017-11-21T18:02:07.883Z,10.27
2017-11-21T18:04:35.370Z,8.20
2017-11-21T18:07:02.880Z,10.20
2017-11-21T18:09:30.353Z,9.93
2017-11-21T18:11:57.867Z,9.57
2017-11-21T18:14:25.424Z,10.00
2017-11-21T18:16:52.911Z,10.70
2017-11-21T18:19:20.420Z,10.87
2017-11-21T18:21:47.914Z,11.03
2017-11-21T18:24:15.449Z,10.97
2017-11-21T18:26:47.627Z,12.03
2017-11-21T18:29:15.953Z,9.60
2017-11-21T18:31:43.447Z,10.33
2017-11-21T18:34:10.927Z,10.27
2017-11-21T18:36:38.397Z,10.40
2017-11-21T18:39:05.881Z,10.57
2017-11-21T18:41:34.742Z,9.50
2017-11-21T18:44:05.019Z,8.67
2017-11-21T18:46:34.674Z,9.40
2017-11-21T18:49:02.162Z,9.73
2017-11-21T18:51:29.659Z,9.17
2017-11-21T18:53:57.185Z,7.90
2017-11-21T18:56:24.681Z,7.80
2017-11-21T18:58:52.149Z,8.13
2017-11-21T19:01:20.448Z,8.53
2017-11-21T19:03:47.932Z,7.30
2017-11-21T19:06:15.452Z,7.70
2017-11-21T19:08:43.697Z,7.77
2017-11-21T19:11:11.190Z,7.13
2017-11-21T19:13:38.699Z,7.77
2017-11-21T19:16:06.167Z,7.63
2017-11-21T19:18:33.681Z,8.33
2017-11-21T19:21:01.207Z,8.37
2017-11-21T19:23:29.456Z,8.00
2017-11-21T19:25:56.985Z,10.33
2017-11-21T19:28:24.517Z,9.17
2017-11-21T19:30:52.026Z,9.23
2017-11-21T19:33:19.517Z,7.40
2017-11-21T19:35:47.023Z,8.80
2017-11-21T19:38:14.512Z,8.73
2017-11-21T19:40:42.006Z,9.27
2017-11-21T19:43:09.516Z,8.03
2017-11-21T19:45:37.072Z,8.07
2017-11-21T19:48:04.586Z,8.40
2017-11-21T19:50:32.110Z,10.80
2017-11-21T19:52:59.634Z,8.57
2017-11-21T19:55:27.188Z,7.70
2017-11-21T19:57:54.709Z,8.23
2017-11-21T20:00:22.210Z,8.83
2017-11-21T20:02:49.782Z,9.50
2017-11-21T20:05:17.353Z,9.97
2017-11-21T20:07:44.867Z,8.93
2017-11-21T20:10:12.443Z,9.80
2017-11-21T20:12:40.026Z,10.13
2017-11-21T20:15:07.655Z,9.93
2017-11-21T20:17:35.188Z,10.77
2017-11-21T20:20:02.771Z,10.37
2017-11-21T20:22:30.259Z,9.00
2017-11-21T20:24:58.399Z,8.63
2017-11-21T20:27:25.991Z,10.63
2017-11-21T20:29:54.214Z,10.10
2017-11-21T20:32:24.827Z,9.30
2017-11-21T20:34:52.359Z,10.90
2017-11-21T20:37:19.874Z,11.10
2017-11-21T20:39:47.409Z,11.10
2017-11-21T20:42:15.077Z,10.40
2017-11-21T20:44:42.727Z,11.17
2017-11-21T20:47:10.356Z,10.30
2017-11-21T20:49:37.847Z,10.90
2017-11-21T20:52:05.472Z,10.30
2017-11-21T20:54:33.113Z,10.80
2017-11-21T20:57:00.634Z,11.13
2017-11-21T20:59:28.160Z,10.83
2017-11-21T21:01:55.640Z,10.73
2017-11-21T21:04:23.910Z,9.57
2017-11-21T21:06:52.177Z,10.20
2017-11-21T21:09:19.677Z,7.80
2017-11-21T21:11:47.154Z,10.43
2017-11-21T21:14:14.637Z,10.40
2017-11-21T21:16:42.182Z,9.60
2017-11-21T21:19:09.659Z,10.47
2017-11-21T21:21:37.185Z,9.40
2017-11-21T21:24:04.681Z,10.00
2017-11-21T21:26:32.156Z,9.40
2017-11-21T21:29:07.784Z,9.37
2017-11-21T21:31:35.261Z,10.87
2017-11-21T21:34:02.763Z,12.40
2017-11-21T21:36:30.264Z,11.93
2017-11-21T21:38:57.767Z,10.33
2017-11-21T21:41:25.407Z,10.30
2017-11-21T21:43:52.911Z,9.20
2017-11-21T21:46:20.413Z,9.53
2017-11-21T21:48:47.939Z,8.50
2017-11-21T21:51:15.429Z,10.90
2017-11-21T21:53:42.942Z,9.87
2017-11-21T21:56:10.422Z,10.10
2017-11-21T21:58:37.961Z,10.57
2017-11-21T22:01:05.452Z,11.00
2017-11-21T22:03:33.678Z,10.97
2017-11-21T22:06:01.166Z,11.00
2017-11-21T22:08:28.637Z,10.43
2017-11-21T22:10:56.912Z,9.67
2017-11-21T22:13:24.379Z,10.77
2017-11-21T22:15:51.833Z,11.40
2017-11-21T22:18:20.092Z,10.87
2017-11-21T22:20:48.352Z,10.73
2017-11-21T22:23:15.847Z,11.03
2017-11-21T22:25:43.349Z,10.70
2017-11-21T22:28:10.821Z,10.77
2017-11-21T22:30:38.305Z,11.13
2017-11-21T22:33:06.543Z,9.43
2017-11-21T22:35:34.020Z,10.93
2017-11-21T22:38:01.515Z,10.53
2017-11-21T22:40:32.861Z,10.10
2017-11-21T22:43:00.366Z,10.57
2017-11-21T22:45:27.833Z,11.30
2017-11-21T22:47:55.328Z,9.53
2017-11-21T22:50:23.557Z,9.30
2017-11-21T22:52:51.021Z,11.23
2017-11-21T22:55:18.526Z,11.20
2017-11-21T22:57:45.995Z,9.80
2017-11-21T23:00:13.466Z,9.37
2017-11-21T23:02:40.957Z,9.50
2017-11-21T23:05:08.402Z,11.00
2017-11-21T23:07:35.885Z,10.20
2017-11-21T23:10:03.370Z,11.00
2017-11-21T23:12:30.867Z,9.27
2017-11-21T23:14:58.354Z,10.77
2017-11-21T23:17:26.602Z,10.30
2017-11-21T23:19:54.080Z,10.77
2017-11-21T23:22:21.627Z,10.30
2017-11-21T23:24:49.070Z,10.30
2017-11-21T23:27:16.553Z,9.93
2017-11-21T23:29:44.018Z,9.50
2017-11-21T23:32:11.517Z,10.90
2017-11-21T23:34:38.979Z,9.90
2017-11-21T23:37:06.450Z,10.57
2017-11-21T23:39:33.930Z,12.13
2017-11-21T23:42:01.398Z,11.60
2017-11-21T23:44:28.908Z,11.17
2017-11-21T23:46:56.385Z,11.40
2017-11-21T23:49:23.852Z,9.53
2017-11-21T23:51:51.328Z,12.97
2017-11-21T23:54:18.812Z,12.90
2017-11-21T23:56:47.041Z,13.50
2017-11-21T23:59:14.519Z,13.10
